Alps, New York
Current Conditions -  °F | °C
As of 1:51 AM on Friday 19 Dec 2014 (Local Time) from KALB Reporting Station
Overcast Overcast  
Wind Chill: -5°   Ceiling: 4100
Heat Index:   Visibility: 10mi
Dew Point: -4°   Wind: 13mph
Humidity: 73%   Direction: 280°W
Pressure: 29.96"   Gusts: NA
Location:  42.6497°N, 73.5273°W
Report Text: KALB 190651Z 28011KT 10SM FEW020 OVC041 00/M04 A2996 RMK AO2 SLP148 OCNL BINOVC T00001044
Loading
Personal Weather Stations






























Interactive Weather Map New forecast layout! Learn more

10-Day Weather Forecast

Advertisements
Track Severe Weather on mobile